Namao, Canada
Current Conditions -  °F | °C
As of 6:00 AM on Saturday 25 Oct 2014 (Local Time) from CYED Reporting Station
Clear Clear  
Wind Chill: 20°   Ceiling: Unl
Heat Index: 27°   Visibility: 9mi
Dew Point: 19°   Wind: 6mph
Humidity: 74%   Direction: 230°SW
Pressure: 30"   Gusts: NA
Location:  53.72°N, 113.48°W
Report Text: CYED 251200Z AUTO 23005KT 9SM CLR M03/M07 A3000 RMK SLP187
Loading
Personal Weather Stations






























Interactive Weather Map
Tropical Storm Tracking
New forecast layout! Learn more

10-Day Weather Forecast

Advertisements
Track Severe Weather on mobile